Flight Track Log - Related Links

Times and Time Zones

All times are in EDT time to prevent confusion due to time zone crossing. See the JZA7927 flight status page for this flight to view local times or setup timezone preferences in your user account.

Time Position Orientation Groundspeed Altitude Reporting Facility
EDT Latitude Longitude Course Direction KTS MPH feet Rate Location/Type
Wed 06:16:34 AM 39.2833 -76.7333 322° Northwest 157 181 3,900  Level Potomac TRACON
Wed 06:17:28 AM 39.3167 -76.7500 339° North 136 157 5,400 1,316 Climbing Potomac TRACON
Wed 06:18:28 AM 39.3167 -76.8000 270° West 141 162 6,400 1,095 Climbing Potomac TRACON
Wed 06:19:34 AM 39.3333 -76.8500 293° West 145 167 7,700 1,158 Climbing Potomac TRACON
Wed 06:20:00 AM 39.2000 -77.1219 270° West  Level FlightAware Approximate
Wed 06:20:22 AM 39.3333 -76.9000 270° West 146 168 8,600  Level Potomac TRACON
Wed 06:21:00 AM 39.2352 -77.1685 322° Northwest  Level FlightAware Approximate
Wed 06:21:10 AM 39.3333 -76.9333 270° West 148 170 9,500  Level Potomac TRACON
Wed 06:23:11 AM 39.3444 -77.0489 277° West 152 175 11,500 994 Climbing Washington Center
Wed 06:24:11 AM 39.3478 -77.1025 275° West 152 175 12,500 1,109 Climbing Washington Center
Wed 06:25:10 AM 39.3767 -77.1408 314° West 146 168 13,700 1,050 Climbing Washington Center
Wed 06:26:11 AM 39.4094 -77.1736 322° Northwest 146 168 14,600 942 Climbing Washington Center
Wed 06:27:11 AM 39.4383 -77.2067 319° Northwest 146 168 15,600 966 Climbing Washington Center
Wed 06:28:09 AM 39.4669 -77.2447 314° West 151 174 16,500 857 Climbing Washington Center
Wed 06:29:10 AM 39.5083 -77.2619 342° North 151 174 17,300 698 Climbing Washington Center
Wed 06:31:18 AM 39.6039 -77.2894 347° North 161 185 18,700 545 Climbing New York Center
Wed 06:32:17 AM 39.6553 -77.3050 347° North 161 185 19,000 151 Climbing New York Center
Wed 06:33:17 AM 39.7044 -77.3175 349° North 185 213 19,000  Level New York Center
Wed 06:34:18 AM 39.7683 -77.3344 348° North 201 231 19,000  Level New York Center
Wed 06:35:20 AM 39.8194 -77.3500 347° North 207 238 19,000  Level New York Center
Wed 06:36:17 AM 39.8831 -77.3694 347° North 207 238 19,000  Level New York Center
Wed 06:37:18 AM 39.9386 -77.3828 350° North 213 245 19,000  Level New York Center
Wed 06:38:17 AM 40.0022 -77.4025 347° North 218 251 19,000  Level New York Center
Wed 06:39:19 AM 40.0556 -77.4156 349° North 218 251 19,000  Level New York Center
Wed 06:40:19 AM 40.1189 -77.4406 343° North 218 251 19,000  Level New York Center
Wed 06:41:17 AM 40.1697 -77.4619 342° North 218 251 19,000  Level New York Center
Wed 06:42:18 AM 40.2328 -77.4897 341° North 218 251 19,000  Level New York Center
Wed 06:43:18 AM 40.2836 -77.5108 342° North 218 251 19,000  Level New York Center
Wed 06:44:19 AM 40.3467 -77.5389 341° North 218 251 19,000  Level New York Center
Wed 06:45:19 AM 40.3978 -77.5575 345° North 218 251 19,000  Level New York Center
Wed 06:46:19 AM 40.4608 -77.5856 341° North 212 244 19,000  Level New York Center
Wed 06:47:17 AM 40.5097 -77.6067 342° North 212 244 19,000  Level New York Center
Wed 06:48:18 AM 40.5708 -77.6319 343° North 207 238 19,000  Level New York Center
Wed 06:49:17 AM 40.6197 -77.6506 344° North 202 232 19,000  Level New York Center
Wed 06:50:17 AM 40.6828 -77.6786 341° North 202 232 19,000  Level New York Center
Wed 06:51:18 AM 40.7397 -77.7008 344° North 202 232 19,000  Level New York Center
Wed 06:52:19 AM 40.7967 -77.7258 342° North 202 232 19,000  Level New York Center
Wed 06:53:18 AM 40.8478 -77.7447 344° North 202 232 19,000  Level New York Center
Wed 06:54:19 AM 40.9025 -77.7697 341° North 207 238 19,000  Level New York Center
Wed 06:55:17 AM 40.9572 -77.7944 341° North 202 232 19,000  Level New York Center
Wed 06:56:18 AM 41.0122 -77.8167 343° North 202 232 19,000  Level New York Center
Wed 06:58:45 AM 41.1525 -77.8778 342° North 205 236 19,000  Level Cleveland Center
Wed 06:59:45 AM 41.2114 -77.8975 346° North 210 242 19,000  Level Cleveland Center
Wed 07:00:45 AM 41.2661 -77.9228 341° North 210 242 19,000  Level Cleveland Center
Wed 07:01:45 AM 41.3231 -77.9481 342° North 210 242 19,000  Level Cleveland Center
Wed 07:02:45 AM 41.3800 -77.9708 343° North 210 242 19,000  Level Cleveland Center
Wed 07:03:45 AM 41.4367 -77.9961 342° North 210 242 19,000  Level Cleveland Center
Wed 07:04:45 AM 41.4936 -78.0217 341° North 210 242 19,000  Level Cleveland Center
Wed 07:05:45 AM 41.5483 -78.0444 343° North 210 242 19,000  Level Cleveland Center
Wed 07:06:45 AM 41.6053 -78.0672 343° North 210 242 19,000  Level Cleveland Center
Wed 07:07:45 AM 41.6600 -78.0928 341° North 210 242 19,000  Level Cleveland Center
Wed 07:08:45 AM 41.7167 -78.1156 343° North 210 242 19,000  Level Cleveland Center
Wed 07:09:45 AM 41.7756 -78.1411 342° North 210 242 19,000  Level Cleveland Center
Wed 07:10:45 AM 41.8325 -78.1669 341° North 210 242 19,000  Level Cleveland Center
Wed 07:11:45 AM 41.8872 -78.1900 343° North 210 242 19,000  Level Cleveland Center
Wed 07:12:45 AM 41.9419 -78.2131 343° North 210 242 19,000  Level Cleveland Center
Wed 07:13:45 AM 41.9986 -78.2389 341° North 216 249 19,000  Level Cleveland Center
Wed 07:14:45 AM 42.0556 -78.2647 341° North 216 249 19,000  Level Cleveland Center
Wed 07:15:45 AM 42.1122 -78.2881 343° North 211 243 19,000  Level Cleveland Center
Wed 07:16:45 AM 42.1794 -78.3164 343° North 218 251 19,000  Level Cleveland Center
Wed 07:17:45 AM 42.2300 -78.3369 343° North 218 251 19,000  Level Cleveland Center
Wed 07:18:45 AM 42.2867 -78.3658 339° North 218 251 19,000  Level Cleveland Center
Wed 07:19:45 AM 42.3433 -78.3892 343° North 212 244 19,000  Level Cleveland Center
Wed 07:20:45 AM 42.4003 -78.4125 343° North 212 244 19,000  Level Cleveland Center
Wed 07:21:45 AM 42.4569 -78.4386 341° North 212 244 19,000  Level Cleveland Center
Wed 07:22:45 AM 42.5117 -78.4622 342° North 212 244 19,000  Level Cleveland Center
Wed 07:23:45 AM 42.5661 -78.4858 342° North 212 244 19,000 -100 Level Cleveland Center
Wed 07:24:45 AM 42.6250 -78.5119 342° North 212 244 18,800 -600 Descending Cleveland Center
Wed 07:25:45 AM 42.6839 -78.5383 342° North 212 244 17,800 -950 Descending Cleveland Center
Wed 07:26:45 AM 42.7469 -78.5672 341° North 222 255 16,900 -950 Descending Cleveland Center
Wed 07:27:45 AM 42.8119 -78.5936 343° North 233 268 15,900 -1,000 Descending Cleveland Center
Wed 07:28:45 AM 42.8603 -78.6175 340° North 213 245 14,900 -950 Descending Cleveland Center
Wed 07:29:45 AM 42.9044 -78.6358 343° North 181 208 14,000 -450 Descending Cleveland Center
Wed 07:30:45 AM 42.9425 -78.6631 332° Northwest 166 191 14,000  Level Cleveland Center
Wed 07:31:45 AM 42.9639 -78.7108 301° West 150 173 14,000  Level Cleveland Center
Wed 07:33:54 AM 43.0167 -78.7833 315° West 150 173 14,000  Level Toronto Center

Login

Don't have an account? Register now (free) for customized features, flight alerts, and more!